Detroit, Michigan
Traffic Map
Current Weather Conditions
Detroit, Michigan
Broken Clouds
Broken Clouds
19°
Feels Like: 19°
Wind Chill: 19° Ceiling: 20000
Heat Index: 19° Visibility: 7mi
Dew Point: 18° Wind: 0mph
Humidity: 94% Direction: ° ()
Pressure: 30.09in Gusts: 0mph
Raw Report DataCYQG 020400Z 00000KT 7SM BKN200 19/18 A3009 RMK CI5 SLP188
Traffic Incident Summary
Active as of:
Severity:
Category:
InformationThere was an issue retrieving the traffic information for this location. Please try a different location or try again shortly.
Advertisements
Track Severe Weather on mobile